createdAt,value
2018-03-15T00:00:53.675Z,53.88
2018-03-15T00:03:26.920Z,53.66
2018-03-15T00:05:54.524Z,53.68
2018-03-15T00:08:22.050Z,53.65
2018-03-15T00:10:49.579Z,53.17
2018-03-15T00:13:17.151Z,53.56
2018-03-15T00:15:44.722Z,53.88
2018-03-15T00:18:12.548Z,54.26
2018-03-15T00:20:40.083Z,53.85
2018-03-15T00:23:07.657Z,54.14
2018-03-15T00:25:35.186Z,53.58
2018-03-15T00:28:02.755Z,54.14
2018-03-15T00:30:30.292Z,53.99
2018-03-15T00:32:57.872Z,53.84
2018-03-15T00:35:25.924Z,54.34
2018-03-15T00:37:53.458Z,54.36
2018-03-15T00:40:20.990Z,54.37
2018-03-15T00:42:49.045Z,53.69
2018-03-15T00:45:16.592Z,53.97
2018-03-15T00:47:44.172Z,54.25
2018-03-15T00:50:12.648Z,53.92
2018-03-15T00:52:40.402Z,54.28
2018-03-15T00:55:09.300Z,54.02
2018-03-15T00:57:36.839Z,54.26
2018-03-15T01:00:04.395Z,54.55
2018-03-15T01:02:32.146Z,54.98
2018-03-15T01:04:59.674Z,55.18
2018-03-15T01:07:27.252Z,55.58
2018-03-15T01:09:54.944Z,54.88
2018-03-15T01:12:22.495Z,55.05
2018-03-15T01:14:50.036Z,55.02
2018-03-15T01:17:18.840Z,54.93
2018-03-15T01:19:47.047Z,55.22
2018-03-15T01:22:14.623Z,54.65
2018-03-15T01:24:42.157Z,54.53
2018-03-15T01:27:10.547Z,54.32
2018-03-15T01:29:38.127Z,54.46
2018-03-15T01:32:06.133Z,54.23
2018-03-15T01:34:33.702Z,53.77
2018-03-15T01:37:01.252Z,53.95
2018-03-15T01:39:28.813Z,54.63
2018-03-15T01:41:56.746Z,54.77
2018-03-15T01:44:24.288Z,54.69
2018-03-15T01:46:51.867Z,54.56
2018-03-15T01:49:19.403Z,53.82
2018-03-15T01:51:46.988Z,54.05
2018-03-15T01:54:14.819Z,54.37
2018-03-15T01:56:42.350Z,54.40
2018-03-15T01:59:10.792Z,54.30
2018-03-15T02:01:38.371Z,54.35
2018-03-15T02:04:06.310Z,54.31
2018-03-15T02:06:33.878Z,54.19
2018-03-15T02:09:01.459Z,53.57
2018-03-15T02:11:28.996Z,53.54
2018-03-15T02:13:56.541Z,53.44
2018-03-15T02:16:24.370Z,53.62
2018-03-15T02:18:51.964Z,53.05
2018-03-15T02:21:20.362Z,53.41
2018-03-15T02:23:47.890Z,53.58
2018-03-15T02:26:15.476Z,54.14
2018-03-15T02:28:43.222Z,54.24
2018-03-15T02:31:10.809Z,53.74
2018-03-15T02:33:38.407Z,53.96
2018-03-15T02:36:05.951Z,54.08
2018-03-15T02:38:33.488Z,54.55
2018-03-15T02:41:01.446Z,54.58
2018-03-15T02:43:28.977Z,54.41
2018-03-15T02:45:56.554Z,54.73
2018-03-15T02:48:24.082Z,55.23
2018-03-15T02:50:51.611Z,55.47
2018-03-15T02:53:19.160Z,55.02
2018-03-15T02:55:46.746Z,54.51
2018-03-15T02:58:14.347Z,54.75
2018-03-15T03:00:41.923Z,54.62
2018-03-15T03:03:09.537Z,54.70
2018-03-15T03:05:37.058Z,54.63
2018-03-15T03:08:04.656Z,55.39
2018-03-15T03:10:32.204Z,55.11
2018-03-15T03:12:59.738Z,55.06
2018-03-15T03:15:27.323Z,55.65
2018-03-15T03:17:54.864Z,55.51
2018-03-15T03:20:22.399Z,55.32
2018-03-15T03:22:49.974Z,55.15
2018-03-15T03:25:18.309Z,54.94
2018-03-15T03:27:45.880Z,54.70
2018-03-15T03:30:13.414Z,54.55
2018-03-15T03:32:40.987Z,54.61
2018-03-15T03:35:08.518Z,55.06
2018-03-15T03:37:36.063Z,54.60
2018-03-15T03:40:03.670Z,55.05
2018-03-15T03:42:31.264Z,55.34
2018-03-15T03:44:59.720Z,54.92
2018-03-15T03:47:27.307Z,55.25
2018-03-15T03:49:54.884Z,54.94
2018-03-15T03:52:22.459Z,55.13
2018-03-15T03:54:50.037Z,55.51
2018-03-15T03:57:17.611Z,55.67
2018-03-15T03:59:45.148Z,55.98
2018-03-15T04:02:12.730Z,55.70
2018-03-15T04:04:40.281Z,55.69
2018-03-15T04:07:07.855Z,55.54
2018-03-15T04:09:35.717Z,55.43
2018-03-15T04:12:03.247Z,54.94
2018-03-15T04:14:30.937Z,55.12
2018-03-15T04:16:58.528Z,55.19
2018-03-15T04:19:26.634Z,55.67
2018-03-15T04:21:54.914Z,55.73
2018-03-15T04:24:22.582Z,55.65
2018-03-15T04:26:51.037Z,55.83
2018-03-15T04:29:18.602Z,55.88
2018-03-15T04:31:46.172Z,55.85
2018-03-15T04:34:13.712Z,55.81
2018-03-15T04:36:41.291Z,55.90
2018-03-15T04:39:09.826Z,55.81
2018-03-15T04:41:37.400Z,55.44
2018-03-15T04:44:04.939Z,55.31
2018-03-15T04:46:32.796Z,55.28
2018-03-15T04:49:00.377Z,54.97
2018-03-15T04:51:28.016Z,54.95
2018-03-15T04:53:55.609Z,55.36
2018-03-15T04:56:23.147Z,55.27
2018-03-15T04:58:50.683Z,55.44
2018-03-15T05:01:18.256Z,55.17
2018-03-15T05:03:46.099Z,54.75
2018-03-15T05:06:13.678Z,54.08
2018-03-15T05:08:41.260Z,53.45
2018-03-15T05:11:09.096Z,52.10
2018-03-15T05:13:36.631Z,51.80
2018-03-15T05:16:04.206Z,51.42
2018-03-15T05:18:31.791Z,50.53
2018-03-15T05:20:59.326Z,50.43
2018-03-15T05:23:27.715Z,49.04
2018-03-15T05:25:55.689Z,48.31
2018-03-15T05:28:23.228Z,49.06
2018-03-15T05:30:50.832Z,48.65
2018-03-15T05:33:18.401Z,48.24
2018-03-15T05:35:46.521Z,47.27
2018-03-15T05:38:14.115Z,45.59
2018-03-15T05:40:41.773Z,44.67
2018-03-15T05:43:09.600Z,44.30
2018-03-15T05:45:38.417Z,45.26
2018-03-15T05:48:05.962Z,44.14
2018-03-15T05:50:34.388Z,42.34
2018-03-15T05:53:02.790Z,41.43
2018-03-15T05:55:30.376Z,40.86
2018-03-15T05:57:57.963Z,40.50
2018-03-15T06:00:26.475Z,40.94
2018-03-15T06:02:54.084Z,41.39
2018-03-15T06:05:21.658Z,41.40
2018-03-15T06:07:49.222Z,41.51
2018-03-15T06:10:17.702Z,42.54
2018-03-15T06:12:45.350Z,42.92
2018-03-15T06:15:13.563Z,42.86
2018-03-15T06:17:41.152Z,42.66
2018-03-15T06:20:09.649Z,43.00
2018-03-15T06:22:37.828Z,44.07
2018-03-15T06:25:05.466Z,43.83
2018-03-15T06:27:33.057Z,44.59
2018-03-15T06:30:00.749Z,44.54
2018-03-15T06:32:28.411Z,44.67
2018-03-15T06:34:55.943Z,44.27
2018-03-15T06:37:23.552Z,44.91
2018-03-15T06:39:51.127Z,44.86
2018-03-15T06:42:18.752Z,44.78
2018-03-15T06:44:46.360Z,45.02
2018-03-15T06:47:15.014Z,45.34
2018-03-15T06:49:43.903Z,45.16
2018-03-15T06:52:12.422Z,45.86
2018-03-15T06:54:40.060Z,45.06
2018-03-15T06:57:07.634Z,43.47
2018-03-15T06:59:35.249Z,42.68
2018-03-15T07:02:02.832Z,41.68
2018-03-15T07:04:30.479Z,41.94
2018-03-15T07:06:58.023Z,42.76
2018-03-15T07:09:26.441Z,42.96
2018-03-15T07:11:54.038Z,42.03
2018-03-15T07:14:21.590Z,41.90
2018-03-15T07:16:49.185Z,42.61
2018-03-15T07:19:16.780Z,42.48
2018-03-15T07:21:44.335Z,41.69
2018-03-15T07:24:11.922Z,42.77
2018-03-15T07:26:39.522Z,44.10
2018-03-15T07:29:07.143Z,44.65
2018-03-15T07:31:34.724Z,44.60
2018-03-15T07:34:02.307Z,43.98
2018-03-15T07:36:29.843Z,44.37
2018-03-15T07:38:57.431Z,44.99
2018-03-15T07:41:25.024Z,44.80
2018-03-15T07:43:52.562Z,44.56
2018-03-15T07:46:20.143Z,44.91
2018-03-15T07:48:48.667Z,44.75
2018-03-15T07:51:16.224Z,44.28
2018-03-15T07:53:43.810Z,43.80
2018-03-15T07:56:11.459Z,43.99
2018-03-15T07:58:38.994Z,44.69
2018-03-15T08:01:07.512Z,44.77
2018-03-15T08:03:35.142Z,45.28
2018-03-15T08:06:02.747Z,44.72
2018-03-15T08:08:30.406Z,44.75
2018-03-15T08:10:57.983Z,44.70
2018-03-15T08:15:26.685Z,44.42
2018-03-15T08:17:54.960Z,44.55
2018-03-15T08:20:22.932Z,44.65
2018-03-15T08:22:50.687Z,44.32
2018-03-15T08:25:18.242Z,44.67
2018-03-15T08:27:45.859Z,44.27
2018-03-15T08:30:14.316Z,44.08
2018-03-15T08:32:42.029Z,43.86
2018-03-15T08:35:09.572Z,43.68
2018-03-15T08:37:37.169Z,43.82
2018-03-15T08:40:04.778Z,43.64
2018-03-15T08:42:33.791Z,44.39
2018-03-15T08:45:01.416Z,43.93
2018-03-15T08:47:28.976Z,43.97
2018-03-15T08:49:56.578Z,44.61
2018-03-15T08:52:24.135Z,44.03
2018-03-15T08:54:51.932Z,44.17
2018-03-15T08:57:19.698Z,43.53
2018-03-15T08:59:47.330Z,44.32
2018-03-15T09:02:15.189Z,44.12
2018-03-15T09:04:42.965Z,44.00
2018-03-15T09:07:10.563Z,43.97
2018-03-15T09:09:38.144Z,43.45
2018-03-15T09:12:05.767Z,43.66
2018-03-15T09:14:33.348Z,43.10
2018-03-15T09:17:00.998Z,43.40
2018-03-15T09:19:28.600Z,43.54
2018-03-15T09:21:56.196Z,43.22
2018-03-15T09:24:23.747Z,42.87
2018-03-15T09:26:51.344Z,43.17
2018-03-15T09:29:19.190Z,42.50
2018-03-15T09:31:46.788Z,42.26
2018-03-15T09:34:14.360Z,42.15
2018-03-15T09:36:42.514Z,42.20
2018-03-15T09:39:10.605Z,41.97
2018-03-15T09:41:38.175Z,41.40
2018-03-15T09:44:07.516Z,41.50
2018-03-15T09:46:35.207Z,41.20
2018-03-15T09:49:02.794Z,41.58
2018-03-15T09:51:30.385Z,42.13
2018-03-15T09:53:58.004Z,41.13
2018-03-15T09:56:26.214Z,40.68
2018-03-15T09:58:53.803Z,40.52
2018-03-15T10:01:21.405Z,41.03
2018-03-15T10:03:49.005Z,40.51
2018-03-15T10:06:16.624Z,39.24
2018-03-15T10:08:44.245Z,39.25
2018-03-15T10:11:11.962Z,39.76
2018-03-15T10:13:40.469Z,40.14
2018-03-15T10:16:08.491Z,39.48
2018-03-15T10:18:36.248Z,39.19
2018-03-15T10:21:03.888Z,39.54
2018-03-15T10:23:31.884Z,39.28
2018-03-15T10:25:59.491Z,39.81
2018-03-15T10:28:27.075Z,39.56
2018-03-15T10:30:55.449Z,40.04
2018-03-15T10:33:28.611Z,40.21
2018-03-15T10:35:56.381Z,39.38
2018-03-15T10:38:23.950Z,39.60
2018-03-15T10:40:53.561Z,39.11
2018-03-15T10:43:24.531Z,39.86
2018-03-15T10:45:52.137Z,39.33
2018-03-15T10:48:19.776Z,38.52
2018-03-15T10:50:47.544Z,39.75
2018-03-15T10:53:15.173Z,39.74
2018-03-15T10:55:42.747Z,38.15
2018-03-15T10:58:10.635Z,39.36
2018-03-15T11:00:43.885Z,39.76
2018-03-15T11:03:17.456Z,39.82
2018-03-15T11:05:48.418Z,39.98
2018-03-15T11:08:21.450Z,39.82
2018-03-15T11:10:49.323Z,40.28
2018-03-15T11:13:17.044Z,39.65
2018-03-15T11:15:44.612Z,39.81
2018-03-15T11:18:12.241Z,39.52
2018-03-15T11:20:40.817Z,37.78
2018-03-15T11:23:08.381Z,38.40
2018-03-15T11:25:36.045Z,39.56
2018-03-15T11:28:03.661Z,39.51
2018-03-15T11:30:31.461Z,38.94
2018-03-15T11:32:59.073Z,38.99
2018-03-15T11:35:26.645Z,39.34
2018-03-15T11:37:54.225Z,39.14
2018-03-15T11:40:21.860Z,36.47
2018-03-15T11:42:49.484Z,38.14
2018-03-15T11:45:17.887Z,38.69
2018-03-15T11:47:45.449Z,39.15
2018-03-15T11:50:13.614Z,39.42
2018-03-15T11:52:41.192Z,39.91
2018-03-15T11:55:08.803Z,39.61
2018-03-15T11:57:37.216Z,39.98
2018-03-15T12:00:04.855Z,39.82
2018-03-15T12:02:32.419Z,40.07
2018-03-15T12:05:00.057Z,39.33
2018-03-15T12:07:28.820Z,39.66
2018-03-15T12:09:56.495Z,36.55
2018-03-15T12:12:24.801Z,39.35
2018-03-15T12:14:52.367Z,39.48
2018-03-15T12:17:19.987Z,39.59
2018-03-15T12:19:47.584Z,39.73
2018-03-15T12:22:16.120Z,39.82
2018-03-15T12:24:43.678Z,39.96
2018-03-15T12:27:11.533Z,39.19
2018-03-15T12:29:39.966Z,38.16
2018-03-15T12:32:07.531Z,39.17
2018-03-15T12:34:35.123Z,39.20
2018-03-15T12:37:03.041Z,39.20
2018-03-15T12:39:31.606Z,39.34
2018-03-15T12:41:59.159Z,39.52
2018-03-15T12:44:26.787Z,39.76
2018-03-15T12:46:54.347Z,39.91
2018-03-15T12:49:21.940Z,39.91
2018-03-15T12:51:49.499Z,37.71
2018-03-15T12:54:17.104Z,39.11
2018-03-15T12:56:44.675Z,39.13
2018-03-15T12:59:12.236Z,38.24
2018-03-15T13:01:39.832Z,38.74
2018-03-15T13:04:07.396Z,39.01
2018-03-15T13:06:35.007Z,39.06
2018-03-15T13:09:02.588Z,38.97
2018-03-15T13:11:30.391Z,39.12
2018-03-15T13:13:59.255Z,38.84
2018-03-15T13:16:26.851Z,38.85
2018-03-15T13:18:55.167Z,38.89
2018-03-15T13:21:22.784Z,38.72
2018-03-15T13:23:51.216Z,38.71
2018-03-15T13:26:18.824Z,39.46
2018-03-15T13:28:46.585Z,39.48
2018-03-15T13:31:14.224Z,39.30
2018-03-15T13:33:41.977Z,36.70
2018-03-15T13:36:09.870Z,38.80
2018-03-15T13:38:37.447Z,36.70
2018-03-15T13:41:05.143Z,36.52
2018-03-15T13:43:32.700Z,36.99
2018-03-15T13:46:00.309Z,36.73
2018-03-15T13:48:27.940Z,38.06
2018-03-15T13:50:55.553Z,37.52
2018-03-15T13:53:23.143Z,37.10
2018-03-15T13:55:50.696Z,36.26
2018-03-15T13:58:18.314Z,35.66
2018-03-15T14:00:45.891Z,37.13
2018-03-15T14:03:14.470Z,37.57
2018-03-15T14:05:43.027Z,37.66
2018-03-15T14:08:10.576Z,37.04
2018-03-15T14:10:38.184Z,35.43
2018-03-15T14:13:06.549Z,35.43
2018-03-15T14:15:34.162Z,37.50
2018-03-15T14:18:01.754Z,36.84
2018-03-15T14:20:29.354Z,37.32
2018-03-15T14:22:57.017Z,38.04
2018-03-15T14:25:25.940Z,37.84
2018-03-15T14:27:53.483Z,37.29
2018-03-15T14:30:22.273Z,36.27
2018-03-15T14:32:49.867Z,37.48
2018-03-15T14:35:17.429Z,36.26
2018-03-15T14:37:45.198Z,36.06
2018-03-15T14:40:13.573Z,37.18
2018-03-15T14:42:41.147Z,36.82
2018-03-15T14:45:09.143Z,37.34
2018-03-15T14:47:36.743Z,36.97
2018-03-15T14:50:04.936Z,37.02
2018-03-15T14:52:33.188Z,36.95
2018-03-15T14:55:00.919Z,37.49
2018-03-15T14:57:28.460Z,37.84
2018-03-15T14:59:57.529Z,38.04
2018-03-15T15:02:25.148Z,38.25
2018-03-15T15:04:52.712Z,38.64
2018-03-15T15:07:21.237Z,39.79
2018-03-15T15:09:48.829Z,40.28
2018-03-15T15:12:16.717Z,40.30
2018-03-15T15:14:44.688Z,40.63
2018-03-15T15:17:12.224Z,39.60
2018-03-15T15:19:39.828Z,39.72
2018-03-15T15:22:08.357Z,39.64
2018-03-15T15:24:36.192Z,40.26
2018-03-15T15:27:04.311Z,40.04
2018-03-15T15:29:32.845Z,40.13
2018-03-15T15:32:00.536Z,39.45
2018-03-15T15:34:28.887Z,39.86
2018-03-15T15:36:56.630Z,39.63
2018-03-15T15:39:24.167Z,40.32
2018-03-15T15:41:52.182Z,40.18
2018-03-15T15:44:20.690Z,39.98
2018-03-15T15:46:48.842Z,39.67
2018-03-15T15:49:17.249Z,40.36
2018-03-15T15:51:45.056Z,40.35
2018-03-15T15:54:12.651Z,39.82
2018-03-15T15:56:40.200Z,40.67
2018-03-15T15:59:07.800Z,40.04
2018-03-15T16:01:35.368Z,40.95
2018-03-15T16:04:02.910Z,41.10
2018-03-15T16:06:30.514Z,41.40
2018-03-15T16:08:58.246Z,42.27
2018-03-15T16:11:26.567Z,42.54
2018-03-15T16:13:54.387Z,42.68
2018-03-15T16:16:23.306Z,42.32
2018-03-15T16:18:51.649Z,42.44
2018-03-15T16:21:19.593Z,43.70
2018-03-15T16:23:47.190Z,43.90
2018-03-15T16:26:15.367Z,44.57
2018-03-15T16:28:43.011Z,45.04
2018-03-15T16:31:10.559Z,45.47
2018-03-15T16:33:38.847Z,45.83
2018-03-15T16:36:06.415Z,45.93
2018-03-15T16:38:34.395Z,46.02
2018-03-15T16:41:02.001Z,46.15
2018-03-15T16:43:29.596Z,46.47
2018-03-15T16:45:57.501Z,46.31
2018-03-15T16:48:25.098Z,46.54
2018-03-15T16:50:52.640Z,46.86
2018-03-15T16:53:20.791Z,46.69
2018-03-15T16:55:48.692Z,47.00
2018-03-15T16:58:16.280Z,47.14
2018-03-15T17:00:43.832Z,47.10
2018-03-15T17:03:12.370Z,46.87
2018-03-15T17:05:40.544Z,46.81
2018-03-15T17:08:10.346Z,46.90
2018-03-15T17:10:38.400Z,47.02
2018-03-15T17:13:05.983Z,47.05
2018-03-15T17:15:33.574Z,47.09
2018-03-15T17:18:01.992Z,47.00
2018-03-15T17:20:29.615Z,47.04
2018-03-15T17:22:57.188Z,46.85
2018-03-15T17:25:24.743Z,46.99
2018-03-15T17:27:53.217Z,46.97
2018-03-15T17:30:21.459Z,47.01
2018-03-15T17:32:49.080Z,47.48
2018-03-15T17:35:17.288Z,48.11
2018-03-15T17:37:45.157Z,47.79
2018-03-15T17:40:12.724Z,47.55
2018-03-15T17:42:41.911Z,47.83
2018-03-15T17:45:11.215Z,47.95
2018-03-15T17:47:39.004Z,48.08
2018-03-15T17:50:07.134Z,48.14
2018-03-15T17:52:35.431Z,48.31
2018-03-15T17:55:03.256Z,48.17
2018-03-15T17:57:31.461Z,48.15
2018-03-15T18:00:01.362Z,47.99
2018-03-15T18:02:29.256Z,48.22
2018-03-15T18:04:57.029Z,48.41
2018-03-15T18:07:25.054Z,48.45
2018-03-15T18:09:53.206Z,48.62
2018-03-15T18:12:21.438Z,48.83
2018-03-15T18:14:49.534Z,48.83
2018-03-15T18:17:18.009Z,49.07
2018-03-15T18:19:46.690Z,48.62
2018-03-15T18:22:14.936Z,49.12
2018-03-15T18:24:45.095Z,49.06
2018-03-15T18:27:13.297Z,49.22
2018-03-15T18:29:41.975Z,49.48
2018-03-15T18:32:11.658Z,49.56
2018-03-15T18:34:40.032Z,50.12
2018-03-15T18:37:09.049Z,50.43
2018-03-15T18:39:36.891Z,50.66
2018-03-15T18:42:05.206Z,50.88
2018-03-15T18:44:34.691Z,51.16
2018-03-15T18:47:02.945Z,51.21
2018-03-15T18:49:32.035Z,51.42
2018-03-15T18:52:00.189Z,51.04
2018-03-15T18:54:29.082Z,50.65
2018-03-15T18:56:59.104Z,50.93
2018-03-15T18:59:26.843Z,50.62
2018-03-15T19:01:56.695Z,50.85
2018-03-15T19:04:24.794Z,50.68
2018-03-15T19:06:52.772Z,51.09
2018-03-15T19:09:20.757Z,51.09
2018-03-15T19:11:48.564Z,51.30
2018-03-15T19:14:16.832Z,51.33
2018-03-15T19:16:44.990Z,51.49
2018-03-15T19:19:13.512Z,51.35
2018-03-15T19:21:41.860Z,51.34
2018-03-15T19:24:10.432Z,51.54
2018-03-15T19:26:38.476Z,51.45
2018-03-15T19:29:07.953Z,51.19
2018-03-15T19:31:37.956Z,50.76
2018-03-15T19:34:06.631Z,51.13
2018-03-15T19:36:35.063Z,50.95
2018-03-15T19:39:03.454Z,50.78
2018-03-15T19:41:31.561Z,50.82
2018-03-15T19:44:00.166Z,51.07
2018-03-15T19:46:30.374Z,50.73
2018-03-15T19:48:58.855Z,50.81
2018-03-15T19:51:27.127Z,50.71
2018-03-15T19:53:55.816Z,50.15
2018-03-15T19:56:25.378Z,50.47
2018-03-15T19:58:55.043Z,50.29
2018-03-15T20:01:23.411Z,50.29
2018-03-15T20:03:51.672Z,50.44
2018-03-15T20:06:19.996Z,50.38
2018-03-15T20:08:48.233Z,50.64
2018-03-15T20:11:16.517Z,51.15
2018-03-15T20:13:44.466Z,51.30
2018-03-15T20:16:15.820Z,50.91
2018-03-15T20:18:44.202Z,51.20
2018-03-15T20:21:12.470Z,51.39
2018-03-15T20:23:46.389Z,51.21
2018-03-15T20:26:17.500Z,51.48
2018-03-15T20:28:45.375Z,51.46
2018-03-15T20:31:14.145Z,51.53
2018-03-15T20:33:47.912Z,51.37
2018-03-15T20:36:17.877Z,51.28
2018-03-15T20:38:45.763Z,51.13
2018-03-15T20:41:19.038Z,51.08
2018-03-15T20:43:46.612Z,50.80
2018-03-15T20:46:19.633Z,50.37
2018-03-15T20:48:52.731Z,49.92
2018-03-15T20:51:21.789Z,50.69
2018-03-15T20:53:49.396Z,51.26
2018-03-15T20:56:16.964Z,52.10
2018-03-15T20:58:44.931Z,52.94
2018-03-15T21:01:12.676Z,53.15
2018-03-15T21:03:41.285Z,53.85
2018-03-15T21:06:08.920Z,54.50
2018-03-15T21:08:38.916Z,54.82
2018-03-15T21:11:07.813Z,54.90
2018-03-15T21:13:35.426Z,55.55
2018-03-15T21:16:02.990Z,56.22
2018-03-15T21:18:31.388Z,56.76
2018-03-15T21:20:58.971Z,56.67
2018-03-15T21:23:27.817Z,56.21
2018-03-15T21:25:56.383Z,55.73
2018-03-15T21:28:24.783Z,55.17
2018-03-15T21:30:52.388Z,55.40
2018-03-15T21:33:21.317Z,55.94
2018-03-15T21:35:49.780Z,56.39
2018-03-15T21:38:17.396Z,57.23
2018-03-15T21:40:44.982Z,57.88
2018-03-15T21:43:13.420Z,57.52
2018-03-15T21:45:40.967Z,56.50
2018-03-15T21:48:08.592Z,55.70
2018-03-15T21:50:37.329Z,54.71
2018-03-15T21:53:06.483Z,54.23
2018-03-15T21:55:34.052Z,53.60
2018-03-15T21:58:02.347Z,52.64
2018-03-15T22:00:29.946Z,53.61
2018-03-15T22:02:57.669Z,54.60
2018-03-15T22:05:25.474Z,56.89
2018-03-15T22:07:53.364Z,57.67
2018-03-15T22:10:20.967Z,58.71
2018-03-15T22:12:48.510Z,59.32
2018-03-15T22:15:16.082Z,58.63
2018-03-15T22:17:43.855Z,57.23
2018-03-15T22:20:11.417Z,56.11
2018-03-15T22:22:39.165Z,55.13
2018-03-15T22:25:06.765Z,54.55
2018-03-15T22:27:34.368Z,53.63
2018-03-15T22:30:01.961Z,53.45
2018-03-15T22:32:29.618Z,52.70
2018-03-15T22:34:57.152Z,52.54
2018-03-15T22:37:25.262Z,52.76
2018-03-15T22:39:52.852Z,52.79
2018-03-15T22:42:20.461Z,52.68
2018-03-15T22:44:48.071Z,52.36
2018-03-15T22:47:15.672Z,52.83
2018-03-15T22:49:43.228Z,52.85
2018-03-15T22:52:10.840Z,52.72
2018-03-15T22:54:38.395Z,52.93
2018-03-15T22:57:05.964Z,53.42
2018-03-15T22:59:33.573Z,55.61
2018-03-15T23:02:01.115Z,57.34
2018-03-15T23:04:29.889Z,58.32
2018-03-15T23:06:57.483Z,58.51
2018-03-15T23:09:25.094Z,58.80
2018-03-15T23:11:52.677Z,59.38
2018-03-15T23:14:20.239Z,59.53
2018-03-15T23:16:48.107Z,58.14
2018-03-15T23:19:15.703Z,57.50
2018-03-15T23:21:43.271Z,56.40
2018-03-15T23:24:10.845Z,57.96
2018-03-15T23:26:39.250Z,56.66
2018-03-15T23:29:07.479Z,56.21
2018-03-15T23:31:35.037Z,55.62
2018-03-15T23:34:02.638Z,55.38
2018-03-15T23:36:30.222Z,55.71
2018-03-15T23:38:57.771Z,55.48
2018-03-15T23:41:25.364Z,54.82
2018-03-15T23:43:52.977Z,54.32
2018-03-15T23:46:20.533Z,54.39
2018-03-15T23:48:48.875Z,55.48
2018-03-15T23:51:16.478Z,55.08
2018-03-15T23:53:44.835Z,54.70
2018-03-15T23:56:13.354Z,55.05
2018-03-15T23:58:41.403Z,55.19
